sensor_id;sensor_type;location;lat;lon;timestamp;P1;durP1;ratioP1;P2;durP2;ratioP2
1296;SDS011;641;48.492;9.184;2023-07-16T00:00:10;11.60;;;7.03;;
1296;SDS011;641;48.492;9.184;2023-07-16T00:02:37;15.90;;;8.37;;
1296;SDS011;641;48.492;9.184;2023-07-16T00:05:03;23.93;;;10.40;;
1296;SDS011;641;48.492;9.184;2023-07-16T00:07:29;29.63;;;9.17;;
1296;SDS011;641;48.492;9.184;2023-07-16T00:09:54;14.30;;;5.47;;
1296;SDS011;641;48.492;9.184;2023-07-16T00:12:20;15.27;;;5.83;;
1296;SDS011;641;48.492;9.184;2023-07-16T00:14:46;10.90;;;5.17;;
1296;SDS011;641;48.492;9.184;2023-07-16T00:17:12;11.00;;;5.00;;
1296;SDS011;641;48.492;9.184;2023-07-16T00:19:37;12.23;;;5.30;;
1296;SDS011;641;48.492;9.184;2023-07-16T00:22:03;11.70;;;6.17;;
1296;SDS011;641;48.492;9.184;2023-07-16T00:24:29;13.10;;;5.53;;
1296;SDS011;641;48.492;9.184;2023-07-16T00:26:54;11.03;;;5.50;;
1296;SDS011;641;48.492;9.184;2023-07-16T00:29:20;11.40;;;5.93;;
1296;SDS011;641;48.492;9.184;2023-07-16T00:31:45;10.10;;;5.20;;
1296;SDS011;641;48.492;9.184;2023-07-16T00:34:11;13.27;;;5.60;;
1296;SDS011;641;48.492;9.184;2023-07-16T00:36:38;11.07;;;5.57;;
1296;SDS011;641;48.492;9.184;2023-07-16T00:39:04;11.00;;;5.70;;
1296;SDS011;641;48.492;9.184;2023-07-16T00:41:29;11.00;;;6.20;;
1296;SDS011;641;48.492;9.184;2023-07-16T00:43:55;9.90;;;5.43;;
1296;SDS011;641;48.492;9.184;2023-07-16T00:46:20;12.67;;;6.77;;
1296;SDS011;641;48.492;9.184;2023-07-16T00:48:46;13.50;;;6.30;;
1296;SDS011;641;48.492;9.184;2023-07-16T00:51:12;13.20;;;7.10;;
1296;SDS011;641;48.492;9.184;2023-07-16T00:53:40;14.43;;;6.30;;
1296;SDS011;641;48.492;9.184;2023-07-16T00:56:07;10.97;;;5.47;;
1296;SDS011;641;48.492;9.184;2023-07-16T00:58:34;9.93;;;5.00;;
1296;SDS011;641;48.492;9.184;2023-07-16T01:00:59;12.27;;;4.97;;
1296;SDS011;641;48.492;9.184;2023-07-16T01:03:25;9.37;;;3.47;;
1296;SDS011;641;48.492;9.184;2023-07-16T01:05:59;8.43;;;2.73;;
1296;SDS011;641;48.492;9.184;2023-07-16T01:08:41;8.27;;;2.50;;
1296;SDS011;641;48.492;9.184;2023-07-16T01:11:11;9.50;;;2.50;;
1296;SDS011;641;48.492;9.184;2023-07-16T01:13:38;8.47;;;2.23;;
1296;SDS011;641;48.492;9.184;2023-07-16T01:16:05;7.57;;;2.37;;
1296;SDS011;641;48.492;9.184;2023-07-16T01:18:30;7.83;;;2.33;;
1296;SDS011;641;48.492;9.184;2023-07-16T01:20:56;6.50;;;2.10;;
1296;SDS011;641;48.492;9.184;2023-07-16T01:23:26;8.60;;;2.40;;
1296;SDS011;641;48.492;9.184;2023-07-16T01:31:14;6.93;;;2.50;;
1296;SDS011;641;48.492;9.184;2023-07-16T01:33:42;7.13;;;2.27;;
1296;SDS011;641;48.492;9.184;2023-07-16T01:36:08;7.37;;;2.20;;
1296;SDS011;641;48.492;9.184;2023-07-16T01:38:34;7.00;;;2.10;;
1296;SDS011;641;48.492;9.184;2023-07-16T01:41:01;8.53;;;2.00;;
1296;SDS011;641;48.492;9.184;2023-07-16T01:43:27;6.60;;;1.73;;
1296;SDS011;641;48.492;9.184;2023-07-16T01:45:52;7.13;;;1.97;;
1296;SDS011;641;48.492;9.184;2023-07-16T01:48:24;6.97;;;2.30;;
1296;SDS011;641;48.492;9.184;2023-07-16T01:51:00;9.03;;;2.87;;
1296;SDS011;641;48.492;9.184;2023-07-16T01:53:26;6.47;;;1.63;;
1296;SDS011;641;48.492;9.184;2023-07-16T01:55:51;9.70;;;2.57;;
1296;SDS011;641;48.492;9.184;2023-07-16T01:58:17;6.67;;;2.27;;
1296;SDS011;641;48.492;9.184;2023-07-16T02:00:43;7.10;;;2.20;;
1296;SDS011;641;48.492;9.184;2023-07-16T02:03:08;8.37;;;2.20;;
1296;SDS011;641;48.492;9.184;2023-07-16T02:05:34;6.93;;;2.10;;
1296;SDS011;641;48.492;9.184;2023-07-16T02:08:00;7.67;;;2.23;;
1296;SDS011;641;48.492;9.184;2023-07-16T02:10:25;7.60;;;2.50;;
1296;SDS011;641;48.492;9.184;2023-07-16T02:12:51;8.93;;;2.50;;
1296;SDS011;641;48.492;9.184;2023-07-16T02:15:17;9.00;;;1.83;;
1296;SDS011;641;48.492;9.184;2023-07-16T02:17:43;8.50;;;2.27;;
1296;SDS011;641;48.492;9.184;2023-07-16T02:20:09;8.27;;;2.13;;
1296;SDS011;641;48.492;9.184;2023-07-16T02:22:38;8.40;;;2.60;;
1296;SDS011;641;48.492;9.184;2023-07-16T02:25:04;17.17;;;2.77;;
1296;SDS011;641;48.492;9.184;2023-07-16T02:27:30;7.00;;;2.20;;
1296;SDS011;641;48.492;9.184;2023-07-16T02:29:56;7.47;;;2.83;;
1296;SDS011;641;48.492;9.184;2023-07-16T02:32:21;9.43;;;2.50;;
1296;SDS011;641;48.492;9.184;2023-07-16T02:34:48;6.63;;;2.07;;
1296;SDS011;641;48.492;9.184;2023-07-16T02:37:13;6.70;;;2.10;;
1296;SDS011;641;48.492;9.184;2023-07-16T02:39:40;7.53;;;1.80;;
1296;SDS011;641;48.492;9.184;2023-07-16T02:42:07;6.80;;;2.20;;
1296;SDS011;641;48.492;9.184;2023-07-16T02:44:32;7.30;;;2.40;;
1296;SDS011;641;48.492;9.184;2023-07-16T02:46:58;7.73;;;2.17;;
1296;SDS011;641;48.492;9.184;2023-07-16T02:49:23;7.70;;;2.33;;
1296;SDS011;641;48.492;9.184;2023-07-16T02:51:49;10.33;;;2.50;;
1296;SDS011;641;48.492;9.184;2023-07-16T02:54:15;7.10;;;2.30;;
1296;SDS011;641;48.492;9.184;2023-07-16T02:56:40;8.70;;;2.40;;
1296;SDS011;641;48.492;9.184;2023-07-16T02:59:06;7.33;;;2.20;;
1296;SDS011;641;48.492;9.184;2023-07-16T03:01:31;6.50;;;1.90;;
1296;SDS011;641;48.492;9.184;2023-07-16T03:03:57;6.80;;;1.93;;
1296;SDS011;641;48.492;9.184;2023-07-16T03:06:22;8.30;;;2.33;;
1296;SDS011;641;48.492;9.184;2023-07-16T03:08:48;7.27;;;2.37;;
1296;SDS011;641;48.492;9.184;2023-07-16T03:11:14;7.30;;;2.70;;
1296;SDS011;641;48.492;9.184;2023-07-16T03:13:39;6.70;;;2.13;;
1296;SDS011;641;48.492;9.184;2023-07-16T03:16:05;7.80;;;2.40;;
1296;SDS011;641;48.492;9.184;2023-07-16T03:18:31;6.60;;;2.17;;
1296;SDS011;641;48.492;9.184;2023-07-16T03:20:57;7.00;;;2.03;;
1296;SDS011;641;48.492;9.184;2023-07-16T03:23:23;6.60;;;2.20;;
1296;SDS011;641;48.492;9.184;2023-07-16T03:25:49;7.73;;;2.30;;
1296;SDS011;641;48.492;9.184;2023-07-16T03:28:15;7.73;;;2.40;;
1296;SDS011;641;48.492;9.184;2023-07-16T03:30:44;6.90;;;2.27;;
1296;SDS011;641;48.492;9.184;2023-07-16T03:33:14;7.73;;;2.43;;
1296;SDS011;641;48.492;9.184;2023-07-16T03:35:43;6.53;;;1.93;;
1296;SDS011;641;48.492;9.184;2023-07-16T03:38:13;11.23;;;2.10;;
1296;SDS011;641;48.492;9.184;2023-07-16T03:40:39;7.53;;;2.37;;
1296;SDS011;641;48.492;9.184;2023-07-16T03:43:07;14.00;;;2.10;;
1296;SDS011;641;48.492;9.184;2023-07-16T03:45:33;9.20;;;2.03;;
1296;SDS011;641;48.492;9.184;2023-07-16T03:47:59;10.70;;;2.40;;
1296;SDS011;641;48.492;9.184;2023-07-16T03:50:24;7.17;;;1.93;;
1296;SDS011;641;48.492;9.184;2023-07-16T03:52:50;7.60;;;1.67;;
1296;SDS011;641;48.492;9.184;2023-07-16T03:55:15;6.90;;;1.93;;
1296;SDS011;641;48.492;9.184;2023-07-16T03:57:41;8.43;;;2.37;;
1296;SDS011;641;48.492;9.184;2023-07-16T04:00:07;10.17;;;2.20;;
1296;SDS011;641;48.492;9.184;2023-07-16T04:02:34;6.60;;;1.77;;
1296;SDS011;641;48.492;9.184;2023-07-16T04:05:00;7.57;;;1.90;;
1296;SDS011;641;48.492;9.184;2023-07-16T04:07:26;6.73;;;1.60;;
1296;SDS011;641;48.492;9.184;2023-07-16T04:09:51;9.80;;;1.80;;
1296;SDS011;641;48.492;9.184;2023-07-16T04:12:17;7.43;;;2.30;;
1296;SDS011;641;48.492;9.184;2023-07-16T04:14:43;11.37;;;2.23;;
1296;SDS011;641;48.492;9.184;2023-07-16T04:17:09;9.73;;;2.27;;
1296;SDS011;641;48.492;9.184;2023-07-16T04:19:34;11.33;;;2.10;;
1296;SDS011;641;48.492;9.184;2023-07-16T04:22:00;7.90;;;2.57;;
1296;SDS011;641;48.492;9.184;2023-07-16T04:24:26;7.17;;;2.00;;
1296;SDS011;641;48.492;9.184;2023-07-16T04:26:52;11.23;;;2.40;;
1296;SDS011;641;48.492;9.184;2023-07-16T04:29:18;6.13;;;1.50;;
1296;SDS011;641;48.492;9.184;2023-07-16T04:31:44;6.80;;;1.90;;
1296;SDS011;641;48.492;9.184;2023-07-16T04:34:10;8.20;;;1.90;;
1296;SDS011;641;48.492;9.184;2023-07-16T04:36:35;8.90;;;1.93;;
1296;SDS011;641;48.492;9.184;2023-07-16T04:39:01;7.20;;;1.70;;
1296;SDS011;641;48.492;9.184;2023-07-16T04:41:27;8.73;;;2.27;;
1296;SDS011;641;48.492;9.184;2023-07-16T04:43:52;6.90;;;2.13;;
1296;SDS011;641;48.492;9.184;2023-07-16T04:46:18;8.30;;;2.40;;
1296;SDS011;641;48.492;9.184;2023-07-16T04:48:43;7.10;;;2.20;;
1296;SDS011;641;48.492;9.184;2023-07-16T04:51:09;6.90;;;2.10;;
1296;SDS011;641;48.492;9.184;2023-07-16T04:53:34;8.70;;;2.03;;
1296;SDS011;641;48.492;9.184;2023-07-16T04:56:00;6.60;;;1.70;;
1296;SDS011;641;48.492;9.184;2023-07-16T04:58:25;7.60;;;2.10;;
1296;SDS011;641;48.492;9.184;2023-07-16T05:00:51;7.20;;;1.87;;
1296;SDS011;641;48.492;9.184;2023-07-16T05:03:16;9.90;;;2.50;;
1296;SDS011;641;48.492;9.184;2023-07-16T05:05:42;7.83;;;2.20;;
1296;SDS011;641;48.492;9.184;2023-07-16T05:08:08;8.33;;;2.20;;
1296;SDS011;641;48.492;9.184;2023-07-16T05:10:33;6.97;;;2.07;;
1296;SDS011;641;48.492;9.184;2023-07-16T05:12:59;8.50;;;2.37;;
1296;SDS011;641;48.492;9.184;2023-07-16T05:15:24;9.97;;;2.47;;
1296;SDS011;641;48.492;9.184;2023-07-16T05:17:50;7.23;;;1.97;;
1296;SDS011;641;48.492;9.184;2023-07-16T05:20:15;8.03;;;3.40;;
1296;SDS011;641;48.492;9.184;2023-07-16T05:22:41;7.00;;;1.70;;
1296;SDS011;641;48.492;9.184;2023-07-16T05:25:07;6.80;;;2.00;;
1296;SDS011;641;48.492;9.184;2023-07-16T05:27:33;8.43;;;2.27;;
1296;SDS011;641;48.492;9.184;2023-07-16T05:29:58;7.17;;;1.83;;
1296;SDS011;641;48.492;9.184;2023-07-16T05:32:24;8.10;;;1.70;;
1296;SDS011;641;48.492;9.184;2023-07-16T05:34:49;12.40;;;2.50;;
1296;SDS011;641;48.492;9.184;2023-07-16T05:37:15;11.30;;;2.87;;
1296;SDS011;641;48.492;9.184;2023-07-16T05:39:40;8.10;;;2.30;;
1296;SDS011;641;48.492;9.184;2023-07-16T05:42:06;6.37;;;1.63;;
1296;SDS011;641;48.492;9.184;2023-07-16T05:44:32;9.90;;;2.10;;
1296;SDS011;641;48.492;9.184;2023-07-16T05:46:58;9.83;;;2.00;;
1296;SDS011;641;48.492;9.184;2023-07-16T05:49:24;8.40;;;1.70;;
1296;SDS011;641;48.492;9.184;2023-07-16T05:51:51;7.80;;;2.17;;
1296;SDS011;641;48.492;9.184;2023-07-16T05:54:17;6.70;;;2.60;;
1296;SDS011;641;48.492;9.184;2023-07-16T05:56:43;7.53;;;1.97;;
1296;SDS011;641;48.492;9.184;2023-07-16T05:59:08;8.10;;;2.27;;
1296;SDS011;641;48.492;9.184;2023-07-16T06:01:34;7.03;;;1.70;;
1296;SDS011;641;48.492;9.184;2023-07-16T06:04:00;7.67;;;1.70;;
1296;SDS011;641;48.492;9.184;2023-07-16T06:06:27;7.20;;;1.90;;
1296;SDS011;641;48.492;9.184;2023-07-16T06:08:53;8.63;;;2.00;;
1296;SDS011;641;48.492;9.184;2023-07-16T06:11:19;11.10;;;2.10;;
1296;SDS011;641;48.492;9.184;2023-07-16T06:13:44;6.97;;;1.80;;
1296;SDS011;641;48.492;9.184;2023-07-16T06:16:10;6.70;;;1.60;;
1296;SDS011;641;48.492;9.184;2023-07-16T06:18:35;6.53;;;1.50;;
1296;SDS011;641;48.492;9.184;2023-07-16T06:21:01;9.30;;;1.77;;
1296;SDS011;641;48.492;9.184;2023-07-16T06:23:26;6.80;;;1.70;;
1296;SDS011;641;48.492;9.184;2023-07-16T06:25:55;7.80;;;1.77;;
1296;SDS011;641;48.492;9.184;2023-07-16T06:28:21;7.27;;;1.60;;
1296;SDS011;641;48.492;9.184;2023-07-16T06:30:47;12.80;;;2.03;;
1296;SDS011;641;48.492;9.184;2023-07-16T06:33:13;8.53;;;1.77;;
1296;SDS011;641;48.492;9.184;2023-07-16T06:35:39;10.63;;;2.40;;
1296;SDS011;641;48.492;9.184;2023-07-16T06:38:04;6.70;;;2.10;;
1296;SDS011;641;48.492;9.184;2023-07-16T06:40:30;7.93;;;2.13;;
1296;SDS011;641;48.492;9.184;2023-07-16T06:42:56;9.23;;;2.23;;
1296;SDS011;641;48.492;9.184;2023-07-16T06:45:22;6.47;;;1.60;;
1296;SDS011;641;48.492;9.184;2023-07-16T06:47:48;6.80;;;1.67;;
1296;SDS011;641;48.492;9.184;2023-07-16T06:50:13;7.63;;;1.70;;
1296;SDS011;641;48.492;9.184;2023-07-16T06:52:39;6.50;;;1.80;;
1296;SDS011;641;48.492;9.184;2023-07-16T06:55:05;13.77;;;2.67;;
1296;SDS011;641;48.492;9.184;2023-07-16T06:57:30;8.37;;;1.70;;
1296;SDS011;641;48.492;9.184;2023-07-16T06:59:56;8.40;;;1.43;;
1296;SDS011;641;48.492;9.184;2023-07-16T07:02:21;8.77;;;1.70;;
1296;SDS011;641;48.492;9.184;2023-07-16T07:04:48;8.47;;;2.00;;
1296;SDS011;641;48.492;9.184;2023-07-16T07:07:15;10.47;;;2.00;;
1296;SDS011;641;48.492;9.184;2023-07-16T07:09:40;8.40;;;1.93;;
1296;SDS011;641;48.492;9.184;2023-07-16T07:12:06;9.87;;;2.10;;
1296;SDS011;641;48.492;9.184;2023-07-16T07:14:32;7.33;;;2.37;;
1296;SDS011;641;48.492;9.184;2023-07-16T07:16:58;7.87;;;1.43;;
1296;SDS011;641;48.492;9.184;2023-07-16T07:19:24;8.77;;;2.17;;
1296;SDS011;641;48.492;9.184;2023-07-16T07:21:49;7.23;;;1.83;;
1296;SDS011;641;48.492;9.184;2023-07-16T07:24:15;6.67;;;1.60;;
1296;SDS011;641;48.492;9.184;2023-07-16T07:26:40;9.90;;;1.67;;
1296;SDS011;641;48.492;9.184;2023-07-16T07:29:06;8.20;;;1.83;;
1296;SDS011;641;48.492;9.184;2023-07-16T07:31:31;8.90;;;1.77;;
1296;SDS011;641;48.492;9.184;2023-07-16T07:33:57;7.57;;;1.87;;
1296;SDS011;641;48.492;9.184;2023-07-16T07:36:23;11.90;;;2.50;;
1296;SDS011;641;48.492;9.184;2023-07-16T07:38:49;7.40;;;2.17;;
1296;SDS011;641;48.492;9.184;2023-07-16T07:41:14;7.90;;;2.30;;
1296;SDS011;641;48.492;9.184;2023-07-16T07:43:40;8.37;;;1.73;;
1296;SDS011;641;48.492;9.184;2023-07-16T07:46:05;6.50;;;1.50;;
1296;SDS011;641;48.492;9.184;2023-07-16T07:48:31;7.87;;;1.90;;
1296;SDS011;641;48.492;9.184;2023-07-16T07:50:57;8.03;;;1.83;;
1296;SDS011;641;48.492;9.184;2023-07-16T07:53:22;6.97;;;2.00;;
1296;SDS011;641;48.492;9.184;2023-07-16T07:55:48;10.67;;;2.13;;
1296;SDS011;641;48.492;9.184;2023-07-16T07:58:14;7.73;;;1.37;;
1296;SDS011;641;48.492;9.184;2023-07-16T08:00:39;6.70;;;1.77;;
1296;SDS011;641;48.492;9.184;2023-07-16T08:03:05;9.97;;;2.13;;
1296;SDS011;641;48.492;9.184;2023-07-16T08:05:30;7.33;;;1.53;;
1296;SDS011;641;48.492;9.184;2023-07-16T08:07:56;9.17;;;1.63;;
1296;SDS011;641;48.492;9.184;2023-07-16T08:10:22;7.27;;;1.40;;
1296;SDS011;641;48.492;9.184;2023-07-16T08:12:48;7.53;;;1.70;;
1296;SDS011;641;48.492;9.184;2023-07-16T08:15:13;6.83;;;1.50;;
1296;SDS011;641;48.492;9.184;2023-07-16T08:17:43;7.30;;;1.70;;
1296;SDS011;641;48.492;9.184;2023-07-16T08:20:09;8.40;;;2.03;;
1296;SDS011;641;48.492;9.184;2023-07-16T08:22:36;6.70;;;1.60;;
1296;SDS011;641;48.492;9.184;2023-07-16T08:25:01;7.33;;;1.50;;
1296;SDS011;641;48.492;9.184;2023-07-16T08:27:28;7.00;;;1.60;;
1296;SDS011;641;48.492;9.184;2023-07-16T08:29:55;8.90;;;2.13;;
1296;SDS011;641;48.492;9.184;2023-07-16T08:32:20;6.37;;;1.47;;
1296;SDS011;641;48.492;9.184;2023-07-16T08:34:46;8.00;;;1.90;;
1296;SDS011;641;48.492;9.184;2023-07-16T08:37:12;7.30;;;1.70;;
1296;SDS011;641;48.492;9.184;2023-07-16T08:39:38;8.37;;;1.67;;
1296;SDS011;641;48.492;9.184;2023-07-16T08:42:04;10.30;;;1.70;;
1296;SDS011;641;48.492;9.184;2023-07-16T08:44:30;8.20;;;2.00;;
1296;SDS011;641;48.492;9.184;2023-07-16T08:46:56;7.00;;;1.53;;
1296;SDS011;641;48.492;9.184;2023-07-16T08:49:22;8.60;;;1.77;;
1296;SDS011;641;48.492;9.184;2023-07-16T08:51:48;11.30;;;1.63;;
1296;SDS011;641;48.492;9.184;2023-07-16T08:54:14;9.50;;;1.83;;
1296;SDS011;641;48.492;9.184;2023-07-16T08:56:43;9.07;;;2.50;;
1296;SDS011;641;48.492;9.184;2023-07-16T08:59:09;6.67;;;1.73;;
1296;SDS011;641;48.492;9.184;2023-07-16T09:01:35;6.90;;;1.60;;
1296;SDS011;641;48.492;9.184;2023-07-16T09:04:04;7.17;;;1.77;;
1296;SDS011;641;48.492;9.184;2023-07-16T09:06:30;8.73;;;2.10;;
1296;SDS011;641;48.492;9.184;2023-07-16T09:08:55;7.20;;;2.00;;
1296;SDS011;641;48.492;9.184;2023-07-16T09:11:21;8.57;;;2.03;;
1296;SDS011;641;48.492;9.184;2023-07-16T09:13:47;10.20;;;1.60;;
1296;SDS011;641;48.492;9.184;2023-07-16T09:16:14;8.00;;;2.00;;
1296;SDS011;641;48.492;9.184;2023-07-16T09:18:41;7.30;;;1.37;;
1296;SDS011;641;48.492;9.184;2023-07-16T09:21:07;8.67;;;1.90;;
1296;SDS011;641;48.492;9.184;2023-07-16T09:23:33;7.80;;;1.80;;
1296;SDS011;641;48.492;9.184;2023-07-16T09:25:59;6.80;;;1.70;;
1296;SDS011;641;48.492;9.184;2023-07-16T09:28:25;7.30;;;1.57;;
1296;SDS011;641;48.492;9.184;2023-07-16T09:30:52;7.20;;;1.60;;
1296;SDS011;641;48.492;9.184;2023-07-16T09:33:18;9.00;;;2.70;;
1296;SDS011;641;48.492;9.184;2023-07-16T09:35:47;8.77;;;1.90;;
1296;SDS011;641;48.492;9.184;2023-07-16T09:38:14;7.10;;;1.70;;
1296;SDS011;641;48.492;9.184;2023-07-16T09:40:41;8.30;;;1.57;;
1296;SDS011;641;48.492;9.184;2023-07-16T09:43:10;6.97;;;1.70;;
1296;SDS011;641;48.492;9.184;2023-07-16T09:45:37;7.00;;;1.43;;
1296;SDS011;641;48.492;9.184;2023-07-16T09:48:03;7.70;;;2.10;;
1296;SDS011;641;48.492;9.184;2023-07-16T09:50:30;6.60;;;1.47;;
1296;SDS011;641;48.492;9.184;2023-07-16T09:52:58;8.03;;;1.80;;
1296;SDS011;641;48.492;9.184;2023-07-16T09:55:24;8.67;;;1.90;;
1296;SDS011;641;48.492;9.184;2023-07-16T09:57:52;8.27;;;1.70;;
1296;SDS011;641;48.492;9.184;2023-07-16T10:00:20;7.23;;;1.70;;
1296;SDS011;641;48.492;9.184;2023-07-16T10:02:47;8.60;;;2.10;;
1296;SDS011;641;48.492;9.184;2023-07-16T10:05:18;6.87;;;1.60;;
1296;SDS011;641;48.492;9.184;2023-07-16T10:07:58;7.90;;;2.10;;
1296;SDS011;641;48.492;9.184;2023-07-16T10:10:43;8.07;;;1.73;;
1296;SDS011;641;48.492;9.184;2023-07-16T10:13:13;8.50;;;1.63;;
1296;SDS011;641;48.492;9.184;2023-07-16T10:15:39;7.70;;;1.87;;
1296;SDS011;641;48.492;9.184;2023-07-16T10:18:22;8.73;;;2.03;;
1296;SDS011;641;48.492;9.184;2023-07-16T10:20:59;7.20;;;2.00;;
1296;SDS011;641;48.492;9.184;2023-07-16T10:23:42;9.13;;;2.10;;
1296;SDS011;641;48.492;9.184;2023-07-16T10:26:12;8.93;;;2.00;;
1296;SDS011;641;48.492;9.184;2023-07-16T10:28:40;7.97;;;1.93;;
1296;SDS011;641;48.492;9.184;2023-07-16T10:31:06;6.87;;;2.17;;
1296;SDS011;641;48.492;9.184;2023-07-16T10:33:42;10.30;;;2.90;;
1296;SDS011;641;48.492;9.184;2023-07-16T10:36:07;8.60;;;1.63;;
1296;SDS011;641;48.492;9.184;2023-07-16T10:38:40;7.00;;;1.90;;
1296;SDS011;641;48.492;9.184;2023-07-16T10:41:07;7.60;;;2.03;;
1296;SDS011;641;48.492;9.184;2023-07-16T10:43:32;7.67;;;1.50;;
1296;SDS011;641;48.492;9.184;2023-07-16T10:45:58;11.33;;;2.17;;
1296;SDS011;641;48.492;9.184;2023-07-16T10:48:24;8.10;;;1.67;;
1296;SDS011;641;48.492;9.184;2023-07-16T10:50:52;7.73;;;2.00;;
1296;SDS011;641;48.492;9.184;2023-07-16T10:53:19;8.20;;;1.80;;
1296;SDS011;641;48.492;9.184;2023-07-16T10:55:44;7.90;;;2.33;;
1296;SDS011;641;48.492;9.184;2023-07-16T10:58:10;7.73;;;1.90;;
1296;SDS011;641;48.492;9.184;2023-07-16T11:00:36;9.13;;;2.20;;
1296;SDS011;641;48.492;9.184;2023-07-16T11:03:03;7.40;;;1.97;;
1296;SDS011;641;48.492;9.184;2023-07-16T11:05:29;8.60;;;1.60;;
1296;SDS011;641;48.492;9.184;2023-07-16T11:07:55;7.40;;;1.77;;
1296;SDS011;641;48.492;9.184;2023-07-16T11:10:20;7.20;;;1.93;;
1296;SDS011;641;48.492;9.184;2023-07-16T11:12:51;7.00;;;1.43;;
1296;SDS011;641;48.492;9.184;2023-07-16T11:15:32;7.20;;;1.57;;
1296;SDS011;641;48.492;9.184;2023-07-16T11:17:59;11.40;;;2.67;;
1296;SDS011;641;48.492;9.184;2023-07-16T11:20:25;7.60;;;1.73;;
1296;SDS011;641;48.492;9.184;2023-07-16T11:22:51;7.93;;;2.10;;
1296;SDS011;641;48.492;9.184;2023-07-16T11:25:16;7.63;;;1.90;;
1296;SDS011;641;48.492;9.184;2023-07-16T11:27:43;7.43;;;1.87;;
1296;SDS011;641;48.492;9.184;2023-07-16T11:30:09;7.27;;;1.83;;
1296;SDS011;641;48.492;9.184;2023-07-16T11:32:41;7.67;;;2.00;;
1296;SDS011;641;48.492;9.184;2023-07-16T11:35:08;9.43;;;1.80;;
1296;SDS011;641;48.492;9.184;2023-07-16T11:37:40;8.47;;;1.80;;
1296;SDS011;641;48.492;9.184;2023-07-16T11:40:06;6.70;;;1.80;;
1296;SDS011;641;48.492;9.184;2023-07-16T11:42:34;10.13;;;1.90;;
1296;SDS011;641;48.492;9.184;2023-07-16T11:45:04;9.70;;;2.57;;
1296;SDS011;641;48.492;9.184;2023-07-16T11:47:40;11.13;;;1.90;;
1296;SDS011;641;48.492;9.184;2023-07-16T11:50:06;7.47;;;1.60;;
1296;SDS011;641;48.492;9.184;2023-07-16T11:52:32;8.10;;;2.83;;
1296;SDS011;641;48.492;9.184;2023-07-16T11:54:58;9.97;;;2.53;;
1296;SDS011;641;48.492;9.184;2023-07-16T11:57:28;7.83;;;1.93;;
1296;SDS011;641;48.492;9.184;2023-07-16T11:59:54;8.30;;;2.30;;
1296;SDS011;641;48.492;9.184;2023-07-16T12:02:20;10.40;;;2.73;;
1296;SDS011;641;48.492;9.184;2023-07-16T12:04:46;7.17;;;1.67;;
1296;SDS011;641;48.492;9.184;2023-07-16T12:07:12;10.17;;;1.80;;
1296;SDS011;641;48.492;9.184;2023-07-16T12:09:37;8.30;;;1.77;;
1296;SDS011;641;48.492;9.184;2023-07-16T12:12:03;8.27;;;2.27;;
1296;SDS011;641;48.492;9.184;2023-07-16T12:14:29;7.00;;;1.80;;
1296;SDS011;641;48.492;9.184;2023-07-16T12:16:55;7.27;;;1.90;;
1296;SDS011;641;48.492;9.184;2023-07-16T12:19:21;7.70;;;2.20;;
1296;SDS011;641;48.492;9.184;2023-07-16T12:21:47;7.50;;;1.77;;
1296;SDS011;641;48.492;9.184;2023-07-16T12:24:13;7.17;;;2.00;;
1296;SDS011;641;48.492;9.184;2023-07-16T12:26:38;9.40;;;2.43;;
1296;SDS011;641;48.492;9.184;2023-07-16T12:29:04;11.60;;;2.00;;
1296;SDS011;641;48.492;9.184;2023-07-16T12:31:33;8.70;;;1.90;;
1296;SDS011;641;48.492;9.184;2023-07-16T12:33:59;7.23;;;1.67;;
1296;SDS011;641;48.492;9.184;2023-07-16T12:36:27;8.43;;;2.40;;
1296;SDS011;641;48.492;9.184;2023-07-16T12:38:53;7.80;;;2.10;;
1296;SDS011;641;48.492;9.184;2023-07-16T12:41:19;7.97;;;2.23;;
1296;SDS011;641;48.492;9.184;2023-07-16T12:43:45;9.33;;;1.80;;
1296;SDS011;641;48.492;9.184;2023-07-16T12:46:11;7.33;;;2.07;;
1296;SDS011;641;48.492;9.184;2023-07-16T12:48:37;7.27;;;1.90;;
1296;SDS011;641;48.492;9.184;2023-07-16T12:51:02;7.67;;;2.10;;
1296;SDS011;641;48.492;9.184;2023-07-16T12:53:28;9.40;;;2.10;;
1296;SDS011;641;48.492;9.184;2023-07-16T12:55:54;7.77;;;2.17;;
1296;SDS011;641;48.492;9.184;2023-07-16T12:58:19;8.77;;;1.90;;
1296;SDS011;641;48.492;9.184;2023-07-16T13:00:45;10.00;;;2.00;;
1296;SDS011;641;48.492;9.184;2023-07-16T13:03:10;9.30;;;2.37;;
1296;SDS011;641;48.492;9.184;2023-07-16T13:05:39;12.83;;;1.90;;
1296;SDS011;641;48.492;9.184;2023-07-16T13:08:08;9.50;;;2.00;;
1296;SDS011;641;48.492;9.184;2023-07-16T13:10:34;6.97;;;1.93;;
1296;SDS011;641;48.492;9.184;2023-07-16T13:13:00;8.30;;;2.10;;
1296;SDS011;641;48.492;9.184;2023-07-16T13:15:28;7.83;;;1.73;;
1296;SDS011;641;48.492;9.184;2023-07-16T13:17:54;6.77;;;1.70;;
1296;SDS011;641;48.492;9.184;2023-07-16T13:20:20;7.90;;;1.67;;
1296;SDS011;641;48.492;9.184;2023-07-16T13:22:47;11.13;;;2.00;;
1296;SDS011;641;48.492;9.184;2023-07-16T13:25:12;8.70;;;2.07;;
1296;SDS011;641;48.492;9.184;2023-07-16T13:27:38;7.37;;;1.67;;
1296;SDS011;641;48.492;9.184;2023-07-16T13:30:04;8.37;;;2.10;;
1296;SDS011;641;48.492;9.184;2023-07-16T13:32:30;8.03;;;1.80;;
1296;SDS011;641;48.492;9.184;2023-07-16T13:34:56;6.90;;;1.87;;
1296;SDS011;641;48.492;9.184;2023-07-16T13:37:22;7.63;;;1.70;;
1296;SDS011;641;48.492;9.184;2023-07-16T13:39:47;10.20;;;2.50;;
1296;SDS011;641;48.492;9.184;2023-07-16T13:42:13;7.53;;;2.03;;
1296;SDS011;641;48.492;9.184;2023-07-16T13:44:38;8.40;;;2.00;;
1296;SDS011;641;48.492;9.184;2023-07-16T13:47:04;10.80;;;2.60;;
1296;SDS011;641;48.492;9.184;2023-07-16T13:49:29;8.20;;;1.50;;
1296;SDS011;641;48.492;9.184;2023-07-16T13:51:55;8.37;;;1.70;;
1296;SDS011;641;48.492;9.184;2023-07-16T13:54:21;11.33;;;1.90;;
1296;SDS011;641;48.492;9.184;2023-07-16T13:56:47;7.83;;;2.10;;
1296;SDS011;641;48.492;9.184;2023-07-16T13:59:13;7.53;;;2.17;;
1296;SDS011;641;48.492;9.184;2023-07-16T14:01:39;8.30;;;1.80;;
1296;SDS011;641;48.492;9.184;2023-07-16T14:04:05;7.07;;;1.77;;
1296;SDS011;641;48.492;9.184;2023-07-16T14:06:31;9.60;;;1.80;;
1296;SDS011;641;48.492;9.184;2023-07-16T14:08:57;11.60;;;2.03;;
1296;SDS011;641;48.492;9.184;2023-07-16T14:11:23;7.27;;;1.80;;
1296;SDS011;641;48.492;9.184;2023-07-16T14:13:49;12.30;;;2.53;;
1296;SDS011;641;48.492;9.184;2023-07-16T14:16:19;8.80;;;2.10;;
1296;SDS011;641;48.492;9.184;2023-07-16T14:18:49;9.60;;;1.97;;
1296;SDS011;641;48.492;9.184;2023-07-16T14:21:16;7.60;;;2.40;;
1296;SDS011;641;48.492;9.184;2023-07-16T14:23:41;8.23;;;1.93;;
1296;SDS011;641;48.492;9.184;2023-07-16T14:26:07;8.43;;;1.97;;
1296;SDS011;641;48.492;9.184;2023-07-16T14:28:32;8.13;;;2.23;;
1296;SDS011;641;48.492;9.184;2023-07-16T14:30:58;8.20;;;2.23;;
1296;SDS011;641;48.492;9.184;2023-07-16T14:33:23;9.80;;;2.03;;
1296;SDS011;641;48.492;9.184;2023-07-16T14:35:49;7.03;;;1.90;;
1296;SDS011;641;48.492;9.184;2023-07-16T14:38:14;10.57;;;2.33;;
1296;SDS011;641;48.492;9.184;2023-07-16T14:40:40;8.90;;;1.90;;
1296;SDS011;641;48.492;9.184;2023-07-16T14:43:07;9.10;;;1.87;;
1296;SDS011;641;48.492;9.184;2023-07-16T14:45:34;8.53;;;1.80;;
1296;SDS011;641;48.492;9.184;2023-07-16T14:48:00;8.70;;;2.10;;
1296;SDS011;641;48.492;9.184;2023-07-16T14:50:26;7.30;;;1.70;;
1296;SDS011;641;48.492;9.184;2023-07-16T14:52:52;9.77;;;2.20;;
1296;SDS011;641;48.492;9.184;2023-07-16T14:55:18;7.83;;;2.27;;
1296;SDS011;641;48.492;9.184;2023-07-16T14:57:44;7.50;;;1.93;;
1296;SDS011;641;48.492;9.184;2023-07-16T15:00:10;8.13;;;2.27;;
1296;SDS011;641;48.492;9.184;2023-07-16T15:02:36;8.60;;;1.63;;
1296;SDS011;641;48.492;9.184;2023-07-16T15:05:02;8.83;;;2.17;;
1296;SDS011;641;48.492;9.184;2023-07-16T15:07:29;7.13;;;1.63;;
1296;SDS011;641;48.492;9.184;2023-07-16T15:09:55;10.03;;;2.13;;
1296;SDS011;641;48.492;9.184;2023-07-16T15:12:21;7.70;;;1.93;;
1296;SDS011;641;48.492;9.184;2023-07-16T15:14:46;7.63;;;1.83;;
1296;SDS011;641;48.492;9.184;2023-07-16T15:17:12;9.23;;;2.07;;
1296;SDS011;641;48.492;9.184;2023-07-16T15:19:38;7.47;;;1.57;;
1296;SDS011;641;48.492;9.184;2023-07-16T15:22:05;7.90;;;1.93;;
1296;SDS011;641;48.492;9.184;2023-07-16T15:24:31;8.43;;;2.10;;
1296;SDS011;641;48.492;9.184;2023-07-16T15:26:57;10.47;;;2.23;;